Time;durP1;ratioP1;P1;durP2;ratioP2;P2;SDS_P1;SDS_P2;PMS_P1;PMS_P2;Temp;Humidity;BMP_temperature;BMP_pressure;BME280_temperature;BME280_humidity;BME280_pressure;Samples;Min_cycle;Max_cycle;Signal;HPM_P1;HPM_P2
2022/11/09 00:01:02;;;;;;;7.43;3.40;;;13.30;77.40;;;;;;5009304;28;20453;-69
2022/11/09 00:03:32;;;;;;;6.63;3.17;;;13.40;77.40;;;;;;5009214;28;20462;-66
2022/11/09 00:06:00;;;;;;;7.20;3.40;;;13.40;77.30;;;;;;5008027;28;20481;-66
2022/11/09 00:08:29;;;;;;;8.33;4.10;;;13.40;77.30;;;;;;5008202;28;20472;-66
2022/11/09 00:11:02;;;;;;;7.17;2.90;;;13.40;77.30;;;;;;5008133;28;20805;-67
2022/11/09 00:13:30;;;;;;;7.07;3.03;;;13.40;77.40;;;;;;5009231;28;20488;-66
2022/11/09 00:15:58;;;;;;;7.50;3.60;;;13.30;77.40;;;;;;5013703;28;20480;-66
2022/11/09 00:18:27;;;;;;;7.40;3.53;;;13.40;77.40;;;;;;5008488;28;20484;-67
2022/11/09 00:20:57;;;;;;;7.47;3.30;;;13.40;77.40;;;;;;5006215;28;20500;-66
2022/11/09 00:23:25;;;;;;;7.33;3.40;;;13.40;77.50;;;;;;5010520;28;20861;-68
2022/11/09 00:25:53;;;;;;;7.23;3.43;;;13.40;77.40;;;;;;5008748;28;20536;-67
2022/11/09 00:28:21;;;;;;;9.87;3.70;;;13.30;77.50;;;;;;5007730;28;20449;-68
2022/11/09 00:30:49;;;;;;;6.67;3.60;;;13.30;77.50;;;;;;5006677;28;20516;-66
2022/11/09 00:33:17;;;;;;;7.10;3.90;;;13.30;77.50;;;;;;5008133;28;20867;-66
2022/11/09 00:35:45;;;;;;;6.50;3.47;;;13.30;77.60;;;;;;5005548;28;20466;-66
2022/11/09 00:38:14;;;;;;;6.13;3.40;;;13.30;77.60;;;;;;5005579;28;20481;-67
2022/11/09 00:40:44;;;;;;;7.57;3.67;;;13.30;77.60;;;;;;5006991;28;20487;-66
2022/11/09 00:43:12;;;;;;;6.37;2.90;;;13.30;77.70;;;;;;5007850;28;21206;-66
2022/11/09 00:45:40;;;;;;;6.77;3.27;;;13.20;77.70;;;;;;5016367;28;20863;-66
2022/11/09 00:48:11;;;;;;;8.03;3.87;;;13.20;77.70;;;;;;5006479;28;20456;-67
2022/11/09 00:50:39;;;;;;;6.97;3.43;;;13.20;77.70;;;;;;5007842;28;20465;-67
2022/11/09 00:53:07;;;;;;;6.70;3.70;;;13.20;77.70;;;;;;5003346;28;20462;-67
2022/11/09 00:55:36;;;;;;;5.77;3.60;;;13.20;77.70;;;;;;5006697;28;20840;-67
2022/11/09 00:58:04;;;;;;;9.70;3.20;;;13.20;77.80;;;;;;5002468;28;20488;-66
2022/11/09 01:00:32;;;;;;;5.80;3.13;;;13.20;77.90;;;;;;5005675;28;20444;-66
2022/11/09 01:03:00;;;;;;;5.77;2.87;;;13.20;77.90;;;;;;5002189;28;20475;-68
2022/11/09 01:05:28;;;;;;;9.10;3.00;;;13.20;77.90;;;;;;5007320;28;20477;-67
2022/11/09 01:07:56;;;;;;;8.00;3.30;;;13.10;77.90;;;;;;5009595;28;20453;-67
2022/11/09 01:10:24;;;;;;;6.87;3.80;;;13.20;77.90;;;;;;5005870;28;20468;-68
2022/11/09 01:12:55;;;;;;;8.90;3.40;;;13.20;77.90;;;;;;5003646;28;20461;-66
2022/11/09 01:15:23;;;;;;;7.83;3.40;;;13.10;78.00;;;;;;4994081;28;21033;-68
2022/11/09 01:17:52;;;;;;;7.57;3.73;;;13.10;77.90;;;;;;5006340;28;20852;-66
2022/11/09 01:20:20;;;;;;;6.23;3.50;;;13.10;78.10;;;;;;5009570;28;20449;-67
2022/11/09 01:22:54;;;;;;;8.07;3.87;;;13.10;78.10;;;;;;5009718;28;20465;-67
2022/11/09 01:25:22;;;;;;;6.60;3.60;;;13.10;78.10;;;;;;4998970;28;20859;-67
2022/11/09 01:27:50;;;;;;;7.90;3.57;;;13.10;78.20;;;;;;5011487;28;20459;-68
2022/11/09 01:30:20;;;;;;;8.13;3.50;;;13.10;78.20;;;;;;5006672;28;20457;-67
2022/11/09 01:32:47;;;;;;;6.80;4.00;;;13.10;78.30;;;;;;5004908;28;20469;-67
2022/11/09 01:35:16;;;;;;;8.30;3.93;;;13.10;78.20;;;;;;5011777;28;20933;-67
2022/11/09 01:37:43;;;;;;;11.63;4.03;;;13.10;78.30;;;;;;5006626;28;20464;-68
2022/11/09 01:40:12;;;;;;;7.37;3.90;;;13.10;78.40;;;;;;5002647;28;20457;-68
2022/11/09 01:42:40;;;;;;;6.63;3.40;;;13.10;78.40;;;;;;5003340;28;20454;-68
2022/11/09 01:45:27;;;;;;;7.30;3.83;;;13.10;78.50;;;;;;5006976;28;20464;-69
2022/11/09 01:48:00;;;;;;;11.73;4.03;;;13.10;78.60;;;;;;5009457;28;20479;-66
2022/11/09 01:50:36;;;;;;;6.30;3.70;;;13.10;78.60;;;;;;5007529;28;20886;-66
2022/11/09 01:53:08;;;;;;;6.70;3.50;;;13.10;78.60;;;;;;5008118;28;20474;-66
2022/11/09 01:55:36;;;;;;;9.80;4.40;;;13.10;78.70;;;;;;5010313;28;20516;-66
2022/11/09 01:58:08;;;;;;;7.60;4.30;;;13.10;78.80;;;;;;5004899;28;21229;-66
2022/11/09 02:00:41;;;;;;;12.97;4.43;;;13.10;78.80;;;;;;5007189;28;21019;-68
2022/11/09 02:03:15;;;;;;;7.93;3.63;;;13.10;78.90;;;;;;5004673;28;20544;-68
2022/11/09 02:05:44;;;;;;;6.93;3.83;;;13.10;79.00;;;;;;5004380;28;20571;-66
2022/11/09 02:08:15;;;;;;;7.37;4.00;;;13.10;79.00;;;;;;5007229;28;20457;-66
2022/11/09 02:10:48;;;;;;;8.43;4.40;;;13.10;79.20;;;;;;5007717;28;20465;-68
2022/11/09 02:13:19;;;;;;;7.07;4.17;;;13.10;79.30;;;;;;5003979;28;20446;-68
2022/11/09 02:15:50;;;;;;;8.17;4.40;;;13.10;79.40;;;;;;5011619;28;20539;-68
2022/11/09 02:18:18;;;;;;;8.10;4.20;;;13.10;79.50;;;;;;5003197;28;20492;-66
2022/11/09 02:20:49;;;;;;;7.90;4.27;;;13.00;79.80;;;;;;5002744;28;20527;-66
2022/11/09 02:23:18;;;;;;;7.10;4.00;;;13.10;80.00;;;;;;5001515;28;20457;-66
2022/11/09 02:25:50;;;;;;;5.93;3.80;;;13.10;80.00;;;;;;5019771;28;20519;-66
2022/11/09 02:28:19;;;;;;;7.97;3.80;;;13.10;80.30;;;;;;5005320;28;20499;-66
2022/11/09 02:30:51;;;;;;;8.73;3.93;;;13.10;80.30;;;;;;5003632;28;20875;-66
2022/11/09 02:33:19;;;;;;;8.43;3.53;;;13.20;80.30;;;;;;5005136;28;20457;-67
2022/11/09 02:35:50;;;;;;;11.87;4.43;;;13.20;80.60;;;;;;5004951;28;20477;-67
2022/11/09 02:38:18;;;;;;;7.60;3.90;;;13.20;80.70;;;;;;5004256;28;20464;-67
2022/11/09 02:40:51;;;;;;;7.87;4.50;;;13.20;80.80;;;;;;5008172;28;20464;-67
2022/11/09 02:43:19;;;;;;;6.50;4.10;;;13.20;80.90;;;;;;5004035;28;20531;-68
2022/11/09 02:45:48;;;;;;;7.60;4.83;;;13.30;81.00;;;;;;5003978;28;20491;-67
2022/11/09 02:48:16;;;;;;;7.90;4.80;;;13.30;81.10;;;;;;5005070;28;20505;-68
2022/11/09 02:50:44;;;;;;;10.37;5.10;;;13.20;81.10;;;;;;5009287;28;20464;-67
2022/11/09 02:53:14;;;;;;;10.83;5.13;;;13.30;81.30;;;;;;5003176;28;20933;-68
2022/11/09 02:55:44;;;;;;;11.40;4.93;;;13.30;81.40;;;;;;5001108;28;20971;-67
2022/11/09 02:58:14;;;;;;;8.00;4.70;;;13.30;81.50;;;;;;5006105;28;20719;-68
2022/11/09 03:00:42;;;;;;;8.40;4.90;;;13.20;81.60;;;;;;5010324;28;20471;-68
2022/11/09 03:03:11;;;;;;;12.63;5.80;;;13.20;81.70;;;;;;5008417;28;20561;-66
2022/11/09 03:05:39;;;;;;;9.30;4.77;;;13.20;81.80;;;;;;5004878;28;20910;-68
2022/11/09 03:08:07;;;;;;;9.00;4.73;;;13.30;81.90;;;;;;5005405;28;21232;-66
2022/11/09 03:10:37;;;;;;;7.27;4.90;;;13.30;82.00;;;;;;5003944;28;20952;-68
2022/11/09 03:13:05;;;;;;;6.97;3.87;;;13.30;81.90;;;;;;5004108;28;20564;-67
2022/11/09 03:15:34;;;;;;;9.10;4.80;;;13.30;82.10;;;;;;5005001;28;21591;-66
2022/11/09 03:18:02;;;;;;;9.73;4.60;;;13.30;82.20;;;;;;5010305;28;20850;-66
2022/11/09 03:20:30;;;;;;;8.90;4.63;;;13.30;82.30;;;;;;5004877;28;20491;-66
2022/11/09 03:22:58;;;;;;;7.50;4.60;;;13.30;82.40;;;;;;5002949;28;21041;-68
2022/11/09 03:25:28;;;;;;;9.13;5.00;;;13.40;82.60;;;;;;5004533;28;21058;-66
2022/11/09 03:28:02;;;;;;;9.23;5.13;;;13.30;82.60;;;;;;5004205;28;20572;-67
2022/11/09 03:30:30;;;;;;;9.30;5.00;;;13.30;82.80;;;;;;5011239;28;20463;-66
2022/11/09 03:32:59;;;;;;;10.73;5.10;;;13.30;82.90;;;;;;5006931;28;20568;-66
2022/11/09 03:35:28;;;;;;;7.80;5.10;;;13.30;83.10;;;;;;4999075;28;20485;-66
2022/11/09 03:37:56;;;;;;;8.73;5.70;;;13.30;83.20;;;;;;5002761;28;20461;-66
2022/11/09 03:40:25;;;;;;;7.47;4.93;;;13.30;83.30;;;;;;5010912;28;20501;-66
2022/11/09 03:42:53;;;;;;;8.80;4.93;;;13.30;83.30;;;;;;5003283;28;20470;-65
2022/11/09 03:45:23;;;;;;;9.93;4.80;;;13.30;83.40;;;;;;5021600;28;20490;-66
2022/11/09 03:47:53;;;;;;;11.97;5.47;;;13.30;83.50;;;;;;5007528;28;20471;-66
2022/11/09 03:50:21;;;;;;;8.53;5.30;;;13.40;83.50;;;;;;5007308;28;20458;-66
2022/11/09 03:52:49;;;;;;;7.97;4.70;;;13.30;83.70;;;;;;5008446;28;20457;-66
2022/11/09 03:55:17;;;;;;;8.50;4.57;;;13.30;83.70;;;;;;5009336;28;20540;-67
2022/11/09 03:57:46;;;;;;;11.47;5.33;;;13.30;83.80;;;;;;5008727;28;20930;-66
2022/11/09 04:00:17;;;;;;;10.27;5.80;;;13.30;83.90;;;;;;5012310;28;21144;-68
2022/11/09 04:02:46;;;;;;;9.30;5.53;;;13.30;84.00;;;;;;5003523;28;20911;-68
2022/11/09 04:05:15;;;;;;;12.57;5.37;;;13.30;84.10;;;;;;5000995;28;20896;-67
2022/11/09 04:07:48;;;;;;;13.87;5.80;;;13.40;84.10;;;;;;5005865;28;20457;-65
2022/11/09 04:10:16;;;;;;;12.33;5.80;;;13.40;84.20;;;;;;5016900;28;20440;-68
2022/11/09 04:12:45;;;;;;;8.50;5.40;;;13.40;84.20;;;;;;5009886;28;20464;-67
2022/11/09 04:15:13;;;;;;;9.23;5.30;;;13.40;84.20;;;;;;5005823;28;20459;-68
2022/11/09 04:17:43;;;;;;;9.67;5.20;;;13.40;84.30;;;;;;5009607;28;20465;-66
2022/11/09 04:20:12;;;;;;;7.60;4.97;;;13.50;84.40;;;;;;5006714;28;20480;-66
2022/11/09 04:22:40;;;;;;;8.70;4.50;;;13.50;84.50;;;;;;5003274;28;20839;-66
2022/11/09 04:25:09;;;;;;;7.60;4.30;;;13.50;84.70;;;;;;5008977;28;20465;-66
2022/11/09 04:27:36;;;;;;;7.80;4.53;;;13.50;84.70;;;;;;5004168;28;20452;-67
2022/11/09 04:30:05;;;;;;;8.17;4.67;;;13.50;84.70;;;;;;5006442;28;20453;-68
2022/11/09 04:32:33;;;;;;;9.10;5.30;;;13.50;84.70;;;;;;5009146;28;21042;-68
2022/11/09 04:35:02;;;;;;;8.87;5.03;;;13.50;84.70;;;;;;5009447;28;20540;-67
2022/11/09 04:37:31;;;;;;;9.60;4.60;;;13.50;84.90;;;;;;5011208;28;20860;-68
2022/11/09 04:39:59;;;;;;;9.20;4.60;;;13.50;84.80;;;;;;5007561;28;20477;-66
2022/11/09 04:42:27;;;;;;;9.27;5.87;;;13.50;84.80;;;;;;5004088;28;20545;-66
2022/11/09 04:44:56;;;;;;;9.67;6.00;;;13.50;84.80;;;;;;5005872;28;20468;-66
2022/11/09 04:47:23;;;;;;;10.20;6.10;;;13.50;84.90;;;;;;5006603;28;20464;-66
2022/11/09 04:49:51;;;;;;;9.90;6.30;;;13.50;85.00;;;;;;5012236;28;20572;-67
2022/11/09 04:52:19;;;;;;;12.33;6.87;;;13.50;84.90;;;;;;5007660;28;20978;-68
2022/11/09 04:54:49;;;;;;;11.37;6.63;;;13.50;85.00;;;;;;5001999;28;20460;-66
2022/11/09 04:57:17;;;;;;;8.97;6.67;;;13.50;85.00;;;;;;5007048;28;20487;-66
2022/11/09 04:59:45;;;;;;;10.47;6.47;;;13.50;85.00;;;;;;5011433;28;20480;-66
2022/11/09 05:02:13;;;;;;;13.17;6.83;;;13.50;85.00;;;;;;5008027;28;20522;-66
2022/11/09 05:04:41;;;;;;;13.80;5.87;;;13.50;85.00;;;;;;5009782;28;20464;-67
2022/11/09 05:07:09;;;;;;;10.17;6.07;;;13.40;85.10;;;;;;5005981;28;20477;-68
2022/11/09 05:09:37;;;;;;;8.80;6.30;;;13.40;85.10;;;;;;5002624;28;20463;-66
2022/11/09 05:12:07;;;;;;;9.80;6.60;;;13.40;85.20;;;;;;5003564;28;20453;-66
2022/11/09 05:14:36;;;;;;;10.57;6.40;;;13.40;85.20;;;;;;5006741;28;20468;-66
2022/11/09 05:17:05;;;;;;;10.27;6.90;;;13.40;85.30;;;;;;5006523;28;20496;-67
2022/11/09 05:19:33;;;;;;;13.27;7.07;;;13.40;85.30;;;;;;5007847;28;20974;-67
2022/11/09 05:23:57;;;;;;;9.60;6.23;;;13.40;85.30;;;;;;5007137;28;21225;-65
2022/11/09 05:24:50;;;;;;;10.03;6.23;;;13.40;85.30;;;;;;5004669;28;20469;-65
2022/11/09 05:27:19;;;;;;;11.17;6.70;;;13.40;85.20;;;;;;5007714;28;20481;-67
2022/11/09 05:29:47;;;;;;;8.70;6.43;;;13.40;85.20;;;;;;5009733;28;20988;-65
2022/11/09 05:32:15;;;;;;;10.60;7.00;;;13.40;85.20;;;;;;5008263;28;20460;-66
2022/11/09 05:34:43;;;;;;;9.67;6.70;;;13.40;85.20;;;;;;5007051;28;21200;-69
2022/11/09 05:37:12;;;;;;;11.67;6.90;;;13.40;85.20;;;;;;5002720;28;20481;-68
2022/11/09 05:39:40;;;;;;;11.13;7.07;;;13.40;85.20;;;;;;5003643;28;20469;-65
2022/11/09 05:42:09;;;;;;;11.40;7.47;;;13.40;85.20;;;;;;5007024;28;20986;-67
2022/11/09 05:44:38;;;;;;;11.57;7.60;;;13.40;85.30;;;;;;5007676;28;20471;-68
2022/11/09 05:47:06;;;;;;;13.83;7.20;;;13.40;85.30;;;;;;5003905;28;20473;-69
2022/11/09 05:49:34;;;;;;;10.80;7.20;;;13.40;85.30;;;;;;5006063;28;20475;-67
2022/11/09 05:52:02;;;;;;;11.67;7.90;;;13.40;85.30;;;;;;5007584;28;20457;-67
2022/11/09 05:54:30;;;;;;;11.10;7.50;;;13.30;85.30;;;;;;5006574;28;20523;-68
2022/11/09 05:57:00;;;;;;;9.57;6.63;;;13.30;85.40;;;;;;5007131;28;20977;-67
2022/11/09 05:59:28;;;;;;;11.30;8.10;;;13.30;85.50;;;;;;5002715;28;21199;-66
2022/11/09 06:01:57;;;;;;;12.83;7.03;;;13.30;85.40;;;;;;5004951;28;20571;-66
2022/11/09 06:04:25;;;;;;;13.93;7.40;;;13.30;85.40;;;;;;5002179;28;21046;-66
2022/11/09 06:06:53;;;;;;;13.80;7.43;;;13.30;85.50;;;;;;5006126;28;20472;-68
2022/11/09 06:09:21;;;;;;;12.60;7.70;;;13.30;85.60;;;;;;5009769;28;20524;-67
2022/11/09 06:11:50;;;;;;;12.70;8.67;;;13.30;85.60;;;;;;5010964;28;20862;-66
2022/11/09 06:14:18;;;;;;;12.00;7.77;;;13.30;85.60;;;;;;5001554;28;20949;-66
2022/11/09 06:16:46;;;;;;;11.63;8.10;;;13.30;85.60;;;;;;5005413;28;20542;-67
2022/11/09 06:19:15;;;;;;;11.70;8.40;;;13.30;85.60;;;;;;5009380;28;20465;-67
2022/11/09 06:21:43;;;;;;;17.83;8.60;;;13.20;85.70;;;;;;5004979;28;20515;-67
2022/11/09 06:24:12;;;;;;;11.73;8.20;;;13.30;85.70;;;;;;5008419;28;21158;-67
2022/11/09 06:26:40;;;;;;;13.33;8.20;;;13.30;85.70;;;;;;5006433;28;20480;-67
2022/11/09 06:29:08;;;;;;;14.97;9.50;;;13.30;85.70;;;;;;5005192;28;20466;-67
2022/11/09 06:31:36;;;;;;;13.03;9.33;;;13.30;85.70;;;;;;5004980;28;21081;-67
2022/11/09 06:34:04;;;;;;;14.47;10.13;;;13.30;85.70;;;;;;5003778;28;20530;-66
2022/11/09 06:36:34;;;;;;;20.23;13.80;;;13.30;85.70;;;;;;5009161;28;20468;-66
2022/11/09 06:39:02;;;;;;;15.43;10.50;;;13.30;85.70;;;;;;5003655;28;20464;-66
2022/11/09 06:41:30;;;;;;;13.47;9.83;;;13.30;85.70;;;;;;5004537;28;20539;-66
2022/11/09 06:43:58;;;;;;;16.43;10.43;;;13.30;85.70;;;;;;5005531;28;20472;-67
2022/11/09 06:46:26;;;;;;;16.63;10.70;;;13.20;85.80;;;;;;5004969;28;20992;-67
2022/11/09 06:48:54;;;;;;;14.63;9.43;;;13.20;85.90;;;;;;5007188;28;21326;-67
2022/11/09 06:51:21;;;;;;;15.00;10.30;;;13.20;85.90;;;;;;5002841;28;20463;-69
2022/11/09 06:53:51;;;;;;;16.47;10.90;;;13.20;86.00;;;;;;5001521;28;20459;-67
2022/11/09 06:56:19;;;;;;;14.63;10.20;;;13.20;86.20;;;;;;4999827;28;20495;-66
2022/11/09 06:58:47;;;;;;;19.20;11.10;;;13.20;86.20;;;;;;5010734;28;20461;-68
2022/11/09 07:01:17;;;;;;;15.20;9.73;;;13.20;86.30;;;;;;5006032;28;20539;-67
2022/11/09 07:03:46;;;;;;;15.67;10.60;;;13.20;86.40;;;;;;5003798;28;20456;-68
2022/11/09 07:06:14;;;;;;;13.40;9.80;;;13.20;86.40;;;;;;5003050;28;20480;-68
2022/11/09 07:08:42;;;;;;;14.60;9.67;;;13.30;86.30;;;;;;5002291;28;20507;-69
2022/11/09 07:11:15;;;;;;;13.47;10.50;;;13.20;86.30;;;;;;5005019;28;20457;-68
2022/11/09 07:13:43;;;;;;;16.00;10.43;;;13.30;86.40;;;;;;5013812;28;20543;-68
2022/11/09 07:16:15;;;;;;;14.70;9.50;;;13.30;86.40;;;;;;5011445;28;20530;-66
2022/11/09 07:18:44;;;;;;;14.57;9.37;;;13.20;86.50;;;;;;5007794;28;20465;-66
2022/11/09 07:21:13;;;;;;;12.20;9.13;;;13.20;86.70;;;;;;5010103;28;20494;-70
2022/11/09 07:23:41;;;;;;;16.27;9.33;;;13.20;86.60;;;;;;5010394;28;20466;-68
2022/11/09 07:26:10;;;;;;;14.73;9.03;;;13.20;86.70;;;;;;5011576;28;20882;-67
2022/11/09 07:28:40;;;;;;;13.83;9.57;;;13.20;86.80;;;;;;5008375;28;20461;-67
2022/11/09 07:31:08;;;;;;;12.40;9.13;;;13.30;86.80;;;;;;5009938;28;20445;-68
2022/11/09 07:33:36;;;;;;;16.70;11.27;;;13.30;86.60;;;;;;5007995;28;20462;-69
2022/11/09 07:36:06;;;;;;;16.40;9.40;;;13.30;86.70;;;;;;5005428;28;20482;-67
2022/11/09 07:38:34;;;;;;;11.67;8.07;;;13.30;86.70;;;;;;5013932;28;20806;-68
2022/11/09 07:41:02;;;;;;;9.70;7.20;;;13.30;86.80;;;;;;5020985;28;20479;-68
2022/11/09 07:43:30;;;;;;;11.10;7.43;;;13.30;86.70;;;;;;5016215;28;20476;-68
2022/11/09 07:46:03;;;;;;;9.43;6.83;;;13.30;86.80;;;;;;5017383;28;20482;-68
2022/11/09 07:48:32;;;;;;;9.40;6.83;;;13.30;86.80;;;;;;5017862;28;20460;-68
2022/11/09 07:51:01;;;;;;;12.10;7.67;;;13.30;86.90;;;;;;5013910;28;20462;-68
2022/11/09 07:53:29;;;;;;;11.23;6.70;;;13.30;86.90;;;;;;5015730;28;21033;-67
2022/11/09 07:55:58;;;;;;;8.50;6.30;;;13.30;86.90;;;;;;5017167;28;20481;-68
2022/11/09 07:58:26;;;;;;;11.33;6.70;;;13.40;87.00;;;;;;5014275;28;21171;-68
2022/11/09 08:00:55;;;;;;;10.73;6.70;;;13.40;87.10;;;;;;5015015;28;20462;-69
2022/11/09 08:03:25;;;;;;;8.67;6.27;;;13.40;87.10;;;;;;5016604;28;20451;-68
2022/11/09 08:05:53;;;;;;;10.57;6.67;;;13.40;87.20;;;;;;5013073;28;20992;-68
2022/11/09 08:08:21;;;;;;;8.30;6.07;;;13.40;87.20;;;;;;5014398;28;20451;-68
2022/11/09 08:10:51;;;;;;;7.60;5.23;;;13.40;87.20;;;;;;5012197;28;20498;-68
2022/11/09 08:13:19;;;;;;;7.80;5.17;;;13.40;87.20;;;;;;5012900;28;20535;-67
2022/11/09 08:15:48;;;;;;;9.67;6.03;;;13.40;87.20;;;;;;5010801;28;20475;-65
2022/11/09 08:18:18;;;;;;;10.80;6.90;;;13.40;87.20;;;;;;5014228;28;20486;-66
2022/11/09 08:20:49;;;;;;;12.53;6.73;;;13.40;87.20;;;;;;5013204;28;20457;-69
2022/11/09 08:23:19;;;;;;;9.33;5.67;;;13.40;87.40;;;;;;5008913;28;20799;-66
2022/11/09 08:25:49;;;;;;;9.80;5.90;;;13.40;87.50;;;;;;5008462;28;20519;-67
2022/11/09 08:28:17;;;;;;;9.57;6.10;;;13.40;87.50;;;;;;5013029;28;20453;-67
2022/11/09 08:30:46;;;;;;;8.33;5.60;;;13.40;87.50;;;;;;5008190;28;20453;-67
2022/11/09 08:33:14;;;;;;;9.37;6.47;;;13.50;87.50;;;;;;5013095;28;20459;-69
2022/11/09 08:35:42;;;;;;;10.00;5.40;;;13.50;87.40;;;;;;5013862;28;21060;-66
2022/11/09 08:38:11;;;;;;;8.63;5.57;;;13.50;87.40;;;;;;5011859;28;20566;-68
2022/11/09 08:40:39;;;;;;;8.43;5.60;;;13.50;87.40;;;;;;5010310;28;20452;-67
2022/11/09 08:43:08;;;;;;;8.30;5.43;;;13.40;87.50;;;;;;5012530;28;20492;-68
2022/11/09 08:45:37;;;;;;;8.83;4.80;;;13.50;87.60;;;;;;5017118;28;20558;-68
2022/11/09 08:48:07;;;;;;;10.77;5.13;;;13.50;87.50;;;;;;5010700;28;20835;-69
2022/11/09 08:50:37;;;;;;;8.27;4.73;;;13.50;87.60;;;;;;5008058;28;21470;-67
2022/11/09 08:53:06;;;;;;;9.93;4.10;;;13.50;87.70;;;;;;5009220;28;20499;-67
2022/11/09 08:55:36;;;;;;;5.87;3.80;;;13.50;87.70;;;;;;5010782;28;20477;-68
2022/11/09 08:58:04;;;;;;;6.97;3.10;;;13.50;87.70;;;;;;5010816;28;20456;-68
2022/11/09 09:00:32;;;;;;;5.93;3.90;;;13.50;87.70;;;;;;5016814;28;20472;-69
2022/11/09 09:03:03;;;;;;;5.50;3.83;;;13.50;87.80;;;;;;5010107;28;20865;-69
2022/11/09 09:05:31;;;;;;;5.23;3.43;;;13.60;87.90;;;;;;5006339;28;21323;-69
2022/11/09 09:07:59;;;;;;;5.23;2.80;;;13.60;87.80;;;;;;5009013;28;20465;-69
2022/11/09 09:10:28;;;;;;;4.67;2.63;;;13.60;87.80;;;;;;5010202;28;20453;-68
2022/11/09 09:12:57;;;;;;;6.30;2.93;;;13.60;87.70;;;;;;5009592;28;20463;-68
2022/11/09 09:15:25;;;;;;;5.17;2.80;;;13.60;87.70;;;;;;5002217;28;20469;-67
2022/11/09 09:17:53;;;;;;;6.43;3.10;;;13.60;87.80;;;;;;5008444;28;20945;-67
2022/11/09 09:20:21;;;;;;;5.27;3.10;;;13.60;87.80;;;;;;5007036;28;20461;-69
2022/11/09 09:22:49;;;;;;;4.50;2.40;;;13.70;87.90;;;;;;5010871;28;20851;-69
2022/11/09 09:25:17;;;;;;;4.60;2.50;;;13.70;87.90;;;;;;5010848;28;20482;-69
2022/11/09 09:27:45;;;;;;;6.33;3.33;;;13.70;87.90;;;;;;5007750;28;20459;-67
2022/11/09 09:30:15;;;;;;;5.13;2.73;;;13.70;88.00;;;;;;5012245;28;20457;-67
2022/11/09 09:32:43;;;;;;;4.93;2.77;;;13.70;87.90;;;;;;5007196;28;20498;-67
2022/11/09 09:35:11;;;;;;;4.30;2.27;;;13.70;87.90;;;;;;5004350;28;20449;-66
2022/11/09 09:37:39;;;;;;;5.20;2.70;;;13.80;88.00;;;;;;5010074;28;20876;-66
2022/11/09 09:40:11;;;;;;;5.57;3.00;;;13.80;88.00;;;;;;5014575;28;20954;-68
2022/11/09 09:42:43;;;;;;;8.70;2.80;;;13.80;88.00;;;;;;5006064;28;21032;-67
2022/11/09 09:45:19;;;;;;;5.73;2.67;;;13.80;88.00;;;;;;5007727;28;20456;-66
2022/11/09 09:47:52;;;;;;;5.43;2.90;;;13.80;88.10;;;;;;5006328;28;20519;-67
2022/11/09 09:50:23;;;;;;;6.10;2.50;;;13.80;88.10;;;;;;5009823;28;20460;-67
2022/11/09 09:52:56;;;;;;;5.10;2.50;;;13.90;88.20;;;;;;5008920;28;20843;-67
2022/11/09 09:55:47;;;;;;;5.13;2.53;;;13.90;88.20;;;;;;4997047;28;20583;-67
2022/11/09 09:58:22;;;;;;;5.17;2.50;;;13.90;88.20;;;;;;5002244;28;20468;-67
2022/11/09 10:00:54;;;;;;;4.50;2.43;;;13.90;88.30;;;;;;4999989;28;20448;-67
2022/11/09 10:03:22;;;;;;;5.70;2.60;;;13.90;88.50;;;;;;5007787;28;20475;-68
2022/11/09 10:05:58;;;;;;;4.97;2.43;;;14.00;88.40;;;;;;5006868;28;20480;-66
2022/11/09 10:08:41;;;;;;;5.03;2.37;;;14.00;88.30;;;;;;5002956;28;20497;-68
2022/11/09 10:11:18;;;;;;;5.70;2.60;;;14.00;88.30;;;;;;5007006;28;20483;-67
2022/11/09 10:14:01;;;;;;;6.00;2.90;;;14.00;88.40;;;;;;5006539;28;20448;-66
2022/11/09 10:16:38;;;;;;;6.13;2.67;;;14.00;88.50;;;;;;5006249;28;20989;-68
2022/11/09 10:19:25;;;;;;;4.30;2.30;;;14.10;88.50;;;;;;5007457;28;20530;-68
2022/11/09 10:21:59;;;;;;;4.80;2.93;;;14.10;88.40;;;;;;5003179;28;20460;-69
2022/11/09 10:24:36;;;;;;;5.10;2.67;;;14.10;88.50;;;;;;5007041;28;20453;-69
2022/11/09 10:27:28;;;;;;;5.70;2.93;;;14.20;88.50;;;;;;5006817;28;20630;-68
2022/11/09 10:29:58;;;;;;;5.50;3.07;;;14.20;88.60;;;;;;5005561;28;20945;-68
2022/11/09 10:32:31;;;;;;;7.40;2.70;;;14.20;88.60;;;;;;5009552;28;20961;-68
2022/11/09 10:35:07;;;;;;;5.00;2.20;;;14.20;88.50;;;;;;5002827;28;20480;-67
2022/11/09 10:37:38;;;;;;;4.63;2.23;;;14.20;88.50;;;;;;5008493;28;20471;-68
2022/11/09 10:40:17;;;;;;;4.17;2.03;;;14.20;88.60;;;;;;5007146;28;20452;-68
2022/11/09 10:43:10;;;;;;;4.77;2.37;;;14.20;88.50;;;;;;5007522;28;20483;-68
2022/11/09 10:46:03;;;;;;;4.90;2.20;;;14.30;88.50;;;;;;5008451;28;20518;-67
2022/11/09 10:48:54;;;;;;;4.20;1.83;;;14.30;88.50;;;;;;5003454;28;20456;-68
2022/11/09 10:51:45;;;;;;;4.70;1.80;;;14.30;88.50;;;;;;5009489;28;20900;-68
2022/11/09 10:54:34;;;;;;;4.60;1.73;;;14.40;88.50;;;;;;5008903;28;20491;-68
2022/11/09 10:57:22;;;;;;;3.60;1.50;;;14.40;88.50;;;;;;5004055;28;20476;-67
2022/11/09 11:00:15;;;;;;;4.10;2.00;;;14.50;88.40;;;;;;5003786;28;20444;-68
2022/11/09 11:03:11;;;;;;;4.10;1.60;;;14.50;88.30;;;;;;5004260;28;20469;-68
2022/11/09 11:06:01;;;;;;;3.30;1.50;;;14.50;88.40;;;;;;5003328;28;20472;-68
2022/11/09 11:08:49;;;;;;;4.00;1.70;;;14.50;88.40;;;;;;5004719;28;20451;-67
2022/11/09 11:11:37;;;;;;;4.23;1.77;;;14.50;88.40;;;;;;5002835;28;20595;-67
2022/11/09 11:14:31;;;;;;;4.30;1.57;;;14.60;88.50;;;;;;5006662;28;20462;-66
2022/11/09 11:17:23;;;;;;;4.60;1.73;;;14.70;88.40;;;;;;5004761;28;20523;-67
2022/11/09 11:20:31;;;;;;;4.70;1.50;;;14.80;88.30;;;;;;5005536;28;20456;-66
2022/11/09 11:23:21;;;;;;;3.53;1.40;;;14.90;88.00;;;;;;5005109;28;20470;-67
2022/11/09 11:26:26;;;;;;;3.93;1.60;;;14.90;88.10;;;;;;5005991;28;20551;-68
2022/11/09 11:29:29;;;;;;;4.43;1.93;;;14.90;88.00;;;;;;5005411;28;20459;-67
2022/11/09 11:32:17;;;;;;;4.83;1.40;;;14.90;87.90;;;;;;5008600;28;21283;-68
2022/11/09 11:35:05;;;;;;;3.43;1.40;;;15.00;87.80;;;;;;5005349;28;21180;-67
2022/11/09 11:38:03;;;;;;;4.20;1.30;;;15.00;87.60;;;;;;5005899;28;20823;-69
2022/11/09 11:41:01;;;;;;;4.67;1.30;;;15.00;87.40;;;;;;5005499;28;20455;-68
2022/11/09 11:43:54;;;;;;;4.60;1.57;;;15.10;87.30;;;;;;5008769;28;20488;-68
2022/11/09 11:46:46;;;;;;;3.95;1.50;;;15.10;87.20;;;;;;5005025;28;20459;-68
2022/11/09 11:50:03;;;;;;;4.33;1.60;;;15.20;86.60;;;;;;5005100;28;20323;-68
2022/11/09 11:53:02;;;;;;;3.80;1.30;;;15.20;86.90;;;;;;4984323;28;20469;-66
2022/11/09 11:56:19;;;;;;;3.83;1.40;;;15.30;86.50;;;;;;5003903;28;20241;-70
2022/11/09 11:59:47;;;;;;;4.70;1.50;;;15.30;86.50;;;;;;5008487;28;20451;-68
2022/11/09 12:02:55;;;;;;;3.80;1.60;;;15.30;86.50;;;;;;5005790;28;20491;-69
2022/11/09 12:06:11;;;;;;;4.97;1.50;;;15.30;86.50;;;;;;5009474;28;20478;-69
2022/11/09 12:09:09;;;;;;;4.83;1.63;;;15.30;86.50;;;;;;5008371;28;20583;-68
2022/11/09 12:12:09;;;;;;;3.50;1.50;;;15.30;86.30;;;;;;5008705;28;20451;-68
2022/11/09 12:15:31;;;;;;;3.83;1.70;;;15.30;86.20;;;;;;5008503;28;20456;-68
2022/11/09 12:18:32;;;;;;;3.90;1.47;;;15.30;86.30;;;;;;5006626;28;20444;-69
2022/11/09 12:21:25;;;;;;;4.30;1.47;;;15.30;86.30;;;;;;5010741;28;20455;-69
2022/11/09 12:24:25;;;;;;;4.97;1.77;;;15.30;86.30;;;;;;5009132;28;20476;-69
2022/11/09 12:27:40;;;;;;;3.77;1.47;;;15.30;86.20;;;;;;5007499;28;20545;-70
2022/11/09 12:30:34;;;;;;;5.30;1.80;;;15.40;85.90;;;;;;5009360;28;20455;-70
2022/11/09 12:33:28;;;;;;;4.00;1.33;;;15.40;86.00;;;;;;5008238;28;20464;-70
2022/11/09 12:36:25;;;;;;;5.80;2.00;;;15.40;86.00;;;;;;5009398;28;20570;-69
2022/11/09 12:39:20;;;;;;;4.70;1.73;;;15.40;85.90;;;;;;5010543;28;20464;-69
2022/11/09 12:42:13;;;;;;;3.80;1.50;;;15.40;85.60;;;;;;5007477;28;20982;-70
2022/11/09 12:45:04;;;;;;;4.23;1.83;;;15.40;85.60;;;;;;5004023;28;20894;-69
2022/11/09 12:47:53;;;;;;;5.40;1.57;;;15.40;85.40;;;;;;5001139;28;21028;-69
2022/11/09 12:50:41;;;;;;;3.43;1.47;;;15.40;85.40;;;;;;5003347;28;21121;-70
2022/11/09 12:53:30;;;;;;;6.03;1.90;;;15.40;85.40;;;;;;5011168;28;20479;-71
2022/11/09 12:56:21;;;;;;;6.33;1.90;;;15.40;85.30;;;;;;5013402;28;20476;-71
2022/11/09 12:59:22;;;;;;;4.00;1.67;;;15.40;85.20;;;;;;5002188;28;20465;-71
2022/11/09 13:02:26;;;;;;;4.53;1.93;;;15.40;85.20;;;;;;5001755;28;20472;-70
2022/11/09 13:05:29;;;;;;;4.70;1.57;;;15.40;84.90;;;;;;5008016;28;20603;-69
2022/11/09 13:08:19;;;;;;;4.80;1.90;;;15.40;84.90;;;;;;5008679;28;20504;-70
2022/11/09 13:11:21;;;;;;;5.00;1.77;;;15.40;84.90;;;;;;5004968;28;20448;-71
2022/11/09 13:14:37;;;;;;;4.70;2.17;;;15.40;84.90;;;;;;5005076;28;20451;-71
2022/11/09 13:18:00;;;;;;;5.03;2.20;;;15.40;84.80;;;;;;5002483;28;20523;-71
2022/11/09 13:20:50;;;;;;;5.50;2.30;;;15.30;84.80;;;;;;5004557;28;20448;-71